Time;durP1;ratioP1;P1;durP2;ratioP2;P2;SDS_P1;SDS_P2;PMS_P1;PMS_P2;Temp;Humidity;BMP_temperature;BMP_pressure;BME280_temperature;BME280_humidity;BME280_pressure;Samples;Min_cycle;Max_cycle;Signal;HPM_P1;HPM_P2
2023/09/06 00:01:16;;;;;;;7.20;4.00;;;22.40;99.90;;;;;;5070636;28;20595;-56
2023/09/06 00:03:42;;;;;;;6.00;3.80;;;22.30;99.90;;;;;;5070699;28;20036;-57
2023/09/06 00:06:08;;;;;;;6.57;3.88;;;22.30;99.90;;;;;;5069274;28;20032;-58
2023/09/06 00:08:33;;;;;;;7.60;3.50;;;22.30;99.90;;;;;;5069625;28;20047;-58
2023/09/06 00:11:04;;;;;;;6.53;3.72;;;22.20;99.90;;;;;;5070624;28;20036;-57
2023/09/06 00:13:33;;;;;;;5.63;3.92;;;22.20;99.90;;;;;;5070737;28;20408;-58
2023/09/06 00:16:00;;;;;;;6.43;3.92;;;22.10;99.90;;;;;;5070334;28;20171;-56
2023/09/06 00:18:27;;;;;;;5.07;3.65;;;22.00;99.90;;;;;;5068907;28;20048;-58
2023/09/06 00:20:53;;;;;;;6.30;4.20;;;22.00;99.90;;;;;;5070757;28;20475;-56
2023/09/06 00:23:20;;;;;;;5.53;4.28;;;22.00;99.90;;;;;;5070490;28;20037;-58
2023/09/06 00:25:46;;;;;;;7.78;4.40;;;22.00;99.90;;;;;;5056623;28;20098;-59
2023/09/06 00:28:13;;;;;;;7.90;4.00;;;21.90;99.90;;;;;;5074146;28;20086;-57
2023/09/06 00:30:39;;;;;;;6.15;4.40;;;21.90;99.90;;;;;;5073333;28;20515;-56
2023/09/06 00:33:06;;;;;;;7.88;4.95;;;21.80;99.90;;;;;;5074426;28;20383;-57
2023/09/06 00:35:33;;;;;;;7.60;4.68;;;21.80;99.90;;;;;;5074439;28;20076;-56
2023/09/06 00:38:05;;;;;;;6.72;4.55;;;21.70;99.90;;;;;;5074323;28;20032;-58
2023/09/06 00:40:39;;;;;;;6.38;4.30;;;21.70;99.90;;;;;;5074854;28;20396;-58
2023/09/06 00:43:06;;;;;;;6.30;4.47;;;21.60;99.90;;;;;;5074277;28;20466;-58
2023/09/06 00:45:44;;;;;;;6.20;4.50;;;21.60;99.90;;;;;;5074560;28;20037;-57
2023/09/06 00:48:16;;;;;;;6.93;4.47;;;21.60;99.90;;;;;;5074563;28;20494;-58
2023/09/06 00:50:43;;;;;;;5.78;3.95;;;21.50;99.90;;;;;;5074105;28;20395;-59
2023/09/06 00:53:09;;;;;;;7.13;4.20;;;21.50;99.90;;;;;;5072606;28;20040;-56
2023/09/06 00:55:41;;;;;;;6.32;4.15;;;21.50;99.90;;;;;;5074073;28;20362;-56
2023/09/06 00:58:08;;;;;;;6.00;4.00;;;21.40;99.90;;;;;;5074016;28;20044;-58
2023/09/06 01:00:35;;;;;;;6.05;3.90;;;21.40;99.90;;;;;;5074249;28;20446;-58
2023/09/06 01:03:03;;;;;;;5.85;4.03;;;21.40;99.90;;;;;;5074110;28;20047;-56
2023/09/06 01:05:34;;;;;;;8.02;4.20;;;21.40;99.90;;;;;;5074331;28;20391;-57
2023/09/06 01:08:04;;;;;;;7.35;4.10;;;21.40;99.90;;;;;;5073813;28;20036;-57
2023/09/06 01:10:33;;;;;;;5.13;4.07;;;21.30;99.90;;;;;;5072707;28;20532;-58
2023/09/06 01:12:59;;;;;;;7.20;4.40;;;21.30;99.90;;;;;;5072460;28;20491;-57
2023/09/06 01:15:25;;;;;;;6.47;4.60;;;21.20;99.90;;;;;;5074341;28;20072;-58
2023/09/06 01:17:52;;;;;;;5.82;4.18;;;21.10;99.90;;;;;;5072322;28;20492;-59
2023/09/06 01:20:44;;;;;;;8.32;4.57;;;21.10;99.90;;;;;;5073596;28;20036;-57
2023/09/06 01:23:36;;;;;;;6.72;4.65;;;21.00;99.90;;;;;;5072186;28;20382;-59
2023/09/06 01:26:02;;;;;;;7.60;4.78;;;21.00;99.90;;;;;;5070638;28;20052;-57
2023/09/06 01:28:28;;;;;;;6.93;4.32;;;20.90;99.90;;;;;;5073804;28;20040;-57
2023/09/06 01:30:55;;;;;;;6.80;4.32;;;21.00;99.90;;;;;;5073688;28;20036;-59
2023/09/06 01:33:22;;;;;;;5.85;4.80;;;20.90;99.90;;;;;;5073822;28;20039;-57
2023/09/06 01:35:49;;;;;;;8.13;4.65;;;20.90;99.90;;;;;;5071527;28;20409;-58
2023/09/06 01:38:15;;;;;;;5.97;4.60;;;20.80;99.90;;;;;;5073269;28;20044;-59
2023/09/06 01:40:44;;;;;;;6.80;4.45;;;20.80;99.90;;;;;;5073192;28;20071;-59
2023/09/06 01:43:10;;;;;;;7.00;4.45;;;20.70;99.90;;;;;;5073208;28;20396;-59
2023/09/06 01:45:48;;;;;;;6.53;4.20;;;20.70;99.90;;;;;;5072829;28;20028;-58
2023/09/06 01:48:14;;;;;;;8.55;4.78;;;20.70;99.90;;;;;;5072632;28;20044;-58
2023/09/06 01:50:41;;;;;;;6.00;4.32;;;20.60;99.90;;;;;;5071261;28;20467;-57
2023/09/06 01:53:07;;;;;;;7.90;5.10;;;20.60;99.90;;;;;;5072928;28;20044;-59
2023/09/06 01:55:33;;;;;;;6.13;4.30;;;20.50;99.90;;;;;;5071503;28;20044;-59
2023/09/06 01:57:58;;;;;;;6.45;4.53;;;20.50;99.90;;;;;;5072591;28;20043;-57
2023/09/06 02:00:28;;;;;;;6.13;4.15;;;20.50;99.90;;;;;;5073176;28;20052;-58
2023/09/06 02:02:58;;;;;;;6.13;4.55;;;20.40;99.90;;;;;;5071648;28;20037;-57
2023/09/06 02:05:24;;;;;;;8.73;3.90;;;20.40;99.90;;;;;;5072940;28;20044;-58
2023/09/06 02:07:50;;;;;;;7.47;4.50;;;20.40;99.90;;;;;;5072301;28;20071;-58
2023/09/06 02:10:17;;;;;;;5.75;4.68;;;20.40;99.90;;;;;;5072944;28;20047;-58
2023/09/06 02:12:43;;;;;;;6.90;4.45;;;20.40;99.90;;;;;;5073054;28;20116;-57
2023/09/06 02:15:13;;;;;;;5.65;4.22;;;20.30;99.90;;;;;;5071320;28;20115;-59
2023/09/06 02:17:42;;;;;;;6.50;4.25;;;20.30;99.90;;;;;;5071574;28;20104;-57
2023/09/06 02:20:16;;;;;;;7.07;5.10;;;20.30;99.90;;;;;;5071244;28;20407;-58
2023/09/06 02:22:52;;;;;;;6.88;4.40;;;20.30;99.90;;;;;;5072598;28;20070;-58
2023/09/06 02:25:21;;;;;;;6.35;4.30;;;20.30;99.90;;;;;;5072450;28;20149;-58
2023/09/06 02:27:47;;;;;;;7.22;4.70;;;20.20;99.90;;;;;;5072429;28;20033;-58
2023/09/06 02:30:14;;;;;;;6.50;4.68;;;20.10;99.90;;;;;;5072276;28;20125;-57
2023/09/06 02:32:40;;;;;;;7.43;4.60;;;20.10;99.90;;;;;;5070897;28;20098;-56
2023/09/06 02:35:07;;;;;;;7.43;4.40;;;20.00;99.90;;;;;;5070957;28;20040;-58
2023/09/06 02:37:34;;;;;;;6.78;4.60;;;19.90;99.90;;;;;;5071719;28;20056;-58
2023/09/06 02:39:59;;;;;;;7.25;4.80;;;19.90;99.90;;;;;;5072313;28;20426;-58
2023/09/06 02:42:26;;;;;;;6.35;4.55;;;19.80;99.90;;;;;;5071116;28;20043;-57
2023/09/06 02:44:52;;;;;;;8.60;5.20;;;19.80;99.90;;;;;;5071704;28;20041;-59
2023/09/06 02:47:17;;;;;;;9.30;4.90;;;19.70;99.90;;;;;;5071942;28;20032;-57
2023/09/06 02:49:45;;;;;;;6.15;4.10;;;19.70;99.90;;;;;;5072024;28;20087;-58
2023/09/06 02:52:20;;;;;;;8.10;5.25;;;19.70;99.90;;;;;;5072243;28;20047;-58
2023/09/06 02:54:49;;;;;;;5.78;4.40;;;19.60;99.90;;;;;;5071782;28;20098;-57
2023/09/06 02:57:18;;;;;;;6.25;4.60;;;19.60;99.90;;;;;;5071999;28;20041;-57
2023/09/06 02:59:43;;;;;;;7.18;5.22;;;19.60;99.90;;;;;;5070763;28;20056;-59
2023/09/06 03:02:12;;;;;;;7.88;5.53;;;19.50;99.90;;;;;;5071395;28;20082;-58
2023/09/06 03:04:40;;;;;;;8.38;5.13;;;19.50;99.90;;;;;;5071741;28;20089;-57
2023/09/06 03:07:09;;;;;;;7.78;5.50;;;19.50;99.90;;;;;;5069834;28;20094;-58
2023/09/06 03:09:38;;;;;;;7.78;4.65;;;19.40;99.90;;;;;;5071290;28;20036;-57
2023/09/06 03:12:16;;;;;;;7.22;4.97;;;19.40;99.90;;;;;;5071305;28;20044;-57
2023/09/06 03:14:44;;;;;;;7.32;5.43;;;19.40;99.90;;;;;;5071292;28;20052;-57
2023/09/06 03:17:18;;;;;;;7.55;4.55;;;19.40;99.90;;;;;;5071671;28;20068;-57
2023/09/06 03:19:45;;;;;;;;;;;19.30;99.90;;;;;;5071753;28;20048;-58
2023/09/06 03:22:15;;;;;;;6.43;4.95;;;19.20;99.90;;;;;;5071601;28;19920;-57
2023/09/06 03:24:43;;;;;;;7.13;5.15;;;19.20;99.90;;;;;;5069012;28;20408;-57
2023/09/06 03:27:15;;;;;;;6.80;5.38;;;19.10;99.90;;;;;;5071254;28;20068;-58
2023/09/06 03:29:40;;;;;;;7.50;5.22;;;19.10;99.90;;;;;;5070958;28;20055;-57
2023/09/06 03:32:07;;;;;;;7.53;5.40;;;19.10;99.90;;;;;;5071467;28;20044;-58
2023/09/06 03:34:34;;;;;;;10.10;5.18;;;19.10;99.90;;;;;;5070965;28;20045;-58
2023/09/06 03:37:04;;;;;;;8.13;5.63;;;19.00;99.90;;;;;;5070749;28;20056;-57
2023/09/06 03:39:37;;;;;;;8.50;5.30;;;19.00;99.90;;;;;;5071399;28;20073;-56
2023/09/06 03:42:08;;;;;;;6.65;5.50;;;19.00;99.90;;;;;;5070957;28;20143;-57
2023/09/06 03:44:37;;;;;;;6.82;5.20;;;19.00;99.90;;;;;;5071089;28;20032;-58
2023/09/06 03:47:13;;;;;;;8.82;5.40;;;19.00;99.90;;;;;;5071220;28;20491;-56
2023/09/06 03:49:43;;;;;;;7.75;5.40;;;18.90;99.90;;;;;;5071225;28;20334;-55
2023/09/06 03:52:15;;;;;;;8.05;5.03;;;18.90;99.90;;;;;;5071578;28;20506;-58
2023/09/06 03:54:41;;;;;;;7.72;5.63;;;18.90;99.90;;;;;;5069690;28;20044;-58
2023/09/06 03:57:13;;;;;;;8.65;5.68;;;18.80;99.90;;;;;;5070740;28;20387;-58
2023/09/06 03:59:40;;;;;;;8.90;5.38;;;18.80;99.90;;;;;;5070311;28;20033;-58
2023/09/06 04:02:07;;;;;;;7.82;5.53;;;18.80;99.90;;;;;;5069079;28;20047;-58
2023/09/06 04:04:34;;;;;;;8.30;6.05;;;18.80;99.90;;;;;;5071067;28;20028;-56
2023/09/06 04:07:00;;;;;;;8.20;5.43;;;18.80;99.90;;;;;;5070113;28;20047;-58
2023/09/06 04:09:31;;;;;;;8.35;5.82;;;18.80;99.90;;;;;;5071108;28;20480;-58
2023/09/06 04:11:58;;;;;;;7.93;6.07;;;18.80;99.90;;;;;;5069594;28;20098;-59
2023/09/06 04:14:24;;;;;;;7.25;5.22;;;18.80;99.90;;;;;;5070774;28;20036;-59
2023/09/06 04:16:50;;;;;;;6.80;5.72;;;18.70;99.90;;;;;;5070676;28;20032;-59
2023/09/06 04:19:16;;;;;;;8.77;5.32;;;18.70;99.90;;;;;;5071239;28;20139;-57
2023/09/06 04:21:43;;;;;;;7.57;5.60;;;18.60;99.90;;;;;;5070400;28;20105;-57
2023/09/06 04:24:09;;;;;;;7.57;6.00;;;18.60;99.90;;;;;;5070589;28;20036;-56
2023/09/06 04:26:35;;;;;;;8.20;5.70;;;18.60;99.90;;;;;;5070352;28;20442;-59
2023/09/06 04:29:04;;;;;;;9.02;6.50;;;18.50;99.90;;;;;;5070847;28;20037;-58
2023/09/06 04:31:30;;;;;;;9.50;6.35;;;18.50;99.90;;;;;;5070446;28;20039;-55
2023/09/06 04:34:01;;;;;;;9.55;6.32;;;18.50;99.90;;;;;;5070725;28;20040;-57
2023/09/06 04:36:26;;;;;;;8.32;6.00;;;18.50;99.90;;;;;;5068369;28;20049;-58
2023/09/06 04:38:53;;;;;;;7.43;5.90;;;18.40;99.90;;;;;;5070652;28;20053;-57
2023/09/06 04:41:20;;;;;;;7.95;5.97;;;18.40;99.90;;;;;;5070663;28;20079;-58
2023/09/06 04:43:45;;;;;;;7.70;5.68;;;18.40;99.90;;;;;;5070483;28;20076;-56
2023/09/06 04:46:11;;;;;;;8.63;6.13;;;18.30;99.90;;;;;;5070209;28;20155;-58
2023/09/06 04:48:37;;;;;;;8.90;6.20;;;18.30;99.90;;;;;;5069778;28;20036;-54
2023/09/06 04:51:02;;;;;;;9.38;6.57;;;18.30;99.90;;;;;;5070523;28;20404;-57
2023/09/06 04:53:28;;;;;;;8.93;6.28;;;18.30;99.90;;;;;;5070408;28;20036;-58
2023/09/06 04:55:54;;;;;;;9.00;6.20;;;18.20;99.90;;;;;;5070280;28;20044;-57
2023/09/06 04:58:20;;;;;;;7.57;6.05;;;18.20;99.90;;;;;;5070419;28;20037;-57
2023/09/06 05:00:50;;;;;;;7.40;6.28;;;18.20;99.90;;;;;;5069911;28;20115;-56
2023/09/06 05:03:17;;;;;;;8.65;6.50;;;18.20;99.90;;;;;;5070203;28;20037;-59
2023/09/06 05:05:47;;;;;;;8.63;6.72;;;18.10;99.90;;;;;;5068772;28;20124;-57
2023/09/06 05:08:13;;;;;;;7.70;6.35;;;18.20;99.90;;;;;;5069862;28;20033;-57
2023/09/06 05:10:39;;;;;;;9.07;6.68;;;18.10;99.90;;;;;;5070875;28;20052;-56
2023/09/06 05:13:07;;;;;;;10.45;6.05;;;18.10;99.90;;;;;;5072991;28;20028;-60
2023/09/06 05:15:36;;;;;;;7.05;6.18;;;18.10;99.90;;;;;;5074137;28;20690;-56
2023/09/06 05:18:04;;;;;;;7.95;6.20;;;18.10;99.90;;;;;;5073834;28;20189;-58
2023/09/06 05:20:33;;;;;;;9.00;6.20;;;18.10;99.90;;;;;;5073987;28;20483;-58
2023/09/06 05:23:02;;;;;;;8.15;6.45;;;18.10;99.90;;;;;;5073448;28;20028;-57
2023/09/06 05:25:28;;;;;;;8.23;6.30;;;18.10;99.90;;;;;;5073560;28;20025;-59
2023/09/06 05:28:01;;;;;;;8.18;6.38;;;18.00;99.90;;;;;;5071882;28;20105;-58
2023/09/06 05:30:27;;;;;;;9.55;6.40;;;18.00;99.90;;;;;;5073845;28;20119;-58
2023/09/06 05:32:55;;;;;;;8.73;6.65;;;18.10;99.90;;;;;;5073432;28;20051;-59
2023/09/06 05:35:21;;;;;;;7.13;5.75;;;18.00;99.90;;;;;;5072349;28;20400;-56
2023/09/06 05:37:47;;;;;;;8.07;5.63;;;18.10;99.90;;;;;;5072500;28;20052;-59
2023/09/06 05:40:13;;;;;;;7.70;6.22;;;18.10;99.90;;;;;;5073327;28;20058;-57
2023/09/06 05:42:40;;;;;;;9.32;6.57;;;18.10;99.90;;;;;;5073155;28;20480;-58
2023/09/06 05:45:10;;;;;;;7.25;5.90;;;18.10;99.90;;;;;;5073807;28;20455;-58
2023/09/06 05:47:36;;;;;;;6.50;5.28;;;18.10;99.90;;;;;;5073069;28;20048;-57
2023/09/06 05:50:02;;;;;;;8.38;6.25;;;18.10;99.90;;;;;;5072979;28;20039;-57
2023/09/06 05:52:28;;;;;;;8.18;5.97;;;18.10;99.90;;;;;;5073116;28;20048;-57
2023/09/06 05:54:54;;;;;;;7.95;6.47;;;18.20;99.90;;;;;;5073207;28;20041;-58
2023/09/06 05:57:20;;;;;;;7.88;6.03;;;18.20;99.90;;;;;;5072854;28;20463;-57
2023/09/06 05:59:46;;;;;;;8.77;6.28;;;18.20;99.90;;;;;;5072485;28;20428;-59
2023/09/06 06:02:12;;;;;;;9.25;5.75;;;18.30;99.90;;;;;;5072388;28;20044;-58
2023/09/06 06:04:37;;;;;;;9.05;5.85;;;18.30;99.90;;;;;;5072119;28;20557;-58
2023/09/06 06:07:03;;;;;;;8.02;6.05;;;18.40;99.90;;;;;;5070733;28;20032;-56
2023/09/06 06:09:29;;;;;;;7.60;5.85;;;18.40;99.90;;;;;;5072313;28;20036;-58
2023/09/06 06:11:55;;;;;;;7.68;5.50;;;18.50;99.90;;;;;;5072185;28;20364;-58
2023/09/06 06:14:23;;;;;;;9.02;5.30;;;18.60;99.90;;;;;;5072524;28;20044;-58
2023/09/06 06:16:49;;;;;;;7.88;5.55;;;18.70;99.90;;;;;;5073003;28;20044;-59
2023/09/06 06:19:14;;;;;;;9.00;5.60;;;18.80;99.90;;;;;;5072669;28;20040;-59
2023/09/06 06:21:40;;;;;;;8.68;5.72;;;18.80;99.90;;;;;;5071239;28;20470;-57
2023/09/06 06:24:09;;;;;;;8.25;5.75;;;18.80;99.90;;;;;;5070918;28;20090;-55
2023/09/06 06:26:35;;;;;;;8.95;5.72;;;18.80;99.90;;;;;;5071872;28;20115;-56
2023/09/06 06:29:01;;;;;;;7.07;5.25;;;18.90;99.90;;;;;;5071756;28;20120;-56
2023/09/06 06:31:28;;;;;;;7.95;5.50;;;18.90;99.90;;;;;;5071043;28;20051;-57
2023/09/06 06:33:54;;;;;;;10.95;6.03;;;18.90;99.90;;;;;;5071516;28;20044;-58
2023/09/06 06:36:19;;;;;;;9.30;5.65;;;19.00;99.90;;;;;;5071242;28;20101;-57
2023/09/06 06:38:48;;;;;;;7.65;5.53;;;19.00;99.90;;;;;;5071583;28;20036;-58
2023/09/06 06:41:22;;;;;;;6.93;5.57;;;19.10;99.90;;;;;;5071821;28;20036;-57
2023/09/06 06:43:48;;;;;;;7.38;5.38;;;19.20;99.90;;;;;;5070813;28;20045;-56
2023/09/06 06:46:28;;;;;;;8.10;5.50;;;19.10;99.90;;;;;;5070799;28;20031;-57
2023/09/06 06:48:54;;;;;;;8.55;5.28;;;19.20;99.90;;;;;;5071622;28;20115;-57
2023/09/06 06:51:20;;;;;;;7.70;4.95;;;19.20;99.90;;;;;;5072099;28;20041;-57
2023/09/06 06:53:46;;;;;;;10.00;5.35;;;19.30;99.90;;;;;;5072042;28;20049;-58
2023/09/06 06:56:12;;;;;;;7.97;5.25;;;19.40;99.90;;;;;;5071791;28;20436;-58
2023/09/06 06:58:37;;;;;;;7.93;5.20;;;19.40;99.90;;;;;;5070407;28;20037;-57
2023/09/06 07:01:03;;;;;;;7.40;5.00;;;19.50;99.90;;;;;;5071708;28;20596;-56
2023/09/06 07:03:29;;;;;;;7.28;4.80;;;19.60;99.90;;;;;;5071591;28;20085;-57
2023/09/06 07:05:55;;;;;;;7.38;5.07;;;19.60;99.90;;;;;;5067178;28;20024;-58
2023/09/06 07:08:23;;;;;;;9.90;5.13;;;19.60;99.90;;;;;;5067144;28;20059;-57
2023/09/06 07:10:49;;;;;;;6.82;5.10;;;19.70;99.90;;;;;;5070938;28;20043;-57
2023/09/06 07:13:15;;;;;;;8.75;5.22;;;19.70;99.90;;;;;;5071022;28;20044;-58
2023/09/06 07:15:42;;;;;;;8.70;5.10;;;19.80;99.90;;;;;;5071181;28;20044;-57
2023/09/06 07:18:08;;;;;;;8.27;5.10;;;19.80;99.90;;;;;;5069305;28;20036;-57
2023/09/06 07:20:35;;;;;;;6.95;5.43;;;19.80;99.90;;;;;;5068706;28;20045;-59
2023/09/06 07:23:01;;;;;;;9.80;5.97;;;19.90;99.90;;;;;;5068270;28;20044;-57
2023/09/06 07:25:31;;;;;;;7.30;5.18;;;20.00;99.90;;;;;;5064548;28;20538;-58
2023/09/06 07:27:59;;;;;;;9.15;5.88;;;20.00;99.90;;;;;;5069319;28;20044;-58
2023/09/06 07:30:25;;;;;;;7.93;5.40;;;20.10;99.90;;;;;;5068364;28;20245;-56
2023/09/06 07:32:51;;;;;;;8.40;5.40;;;20.20;99.90;;;;;;5067114;28;20044;-57
2023/09/06 07:35:16;;;;;;;7.70;5.72;;;20.20;99.90;;;;;;5067910;28;20040;-58
2023/09/06 07:37:43;;;;;;;7.00;4.95;;;20.30;99.90;;;;;;5067178;28;20060;-56
2023/09/06 07:40:10;;;;;;;11.45;4.80;;;20.40;99.90;;;;;;5066802;28;20040;-57
2023/09/06 07:42:39;;;;;;;7.85;4.70;;;20.40;99.90;;;;;;5069296;28;20412;-57
2023/09/06 07:45:09;;;;;;;9.65;4.82;;;20.50;99.90;;;;;;5065803;28;20041;-53
2023/09/06 07:47:34;;;;;;;6.78;4.50;;;20.60;99.90;;;;;;5068096;28;20476;-58
2023/09/06 07:50:00;;;;;;;7.57;4.60;;;20.70;99.90;;;;;;5067478;28;20094;-58
2023/09/06 07:52:26;;;;;;;9.55;4.85;;;20.70;99.90;;;;;;5069864;28;20049;-58
2023/09/06 07:54:51;;;;;;;6.80;4.68;;;20.80;99.90;;;;;;5070013;28;20395;-57
2023/09/06 07:57:17;;;;;;;9.20;4.80;;;20.80;99.90;;;;;;5057582;28;20165;-58
2023/09/06 07:59:43;;;;;;;8.38;4.63;;;20.90;99.90;;;;;;5058674;28;20051;-59
2023/09/06 08:02:09;;;;;;;8.20;4.30;;;21.00;99.90;;;;;;5059611;28;20063;-57
2023/09/06 08:04:35;;;;;;;7.55;4.50;;;21.00;99.90;;;;;;5059313;28;20115;-58
2023/09/06 08:07:01;;;;;;;7.35;4.13;;;21.10;99.90;;;;;;5058656;28;20035;-58
2023/09/06 08:09:27;;;;;;;6.90;4.20;;;21.20;99.90;;;;;;5058927;28;20484;-58
2023/09/06 08:11:52;;;;;;;11.05;4.22;;;21.30;99.90;;;;;;5058007;28;20029;-57
2023/09/06 08:14:18;;;;;;;6.18;3.88;;;21.40;99.90;;;;;;5059753;28;20479;-57
2023/09/06 08:16:44;;;;;;;7.55;4.15;;;21.50;99.90;;;;;;5057897;28;20120;-59
2023/09/06 08:19:10;;;;;;;6.25;3.70;;;21.60;99.90;;;;;;5057828;28;20029;-56
2023/09/06 08:21:37;;;;;;;7.22;4.07;;;21.60;99.90;;;;;;5057960;28;20565;-56
2023/09/06 08:24:03;;;;;;;8.05;3.90;;;21.70;99.90;;;;;;5058145;28;20113;-55
2023/09/06 08:26:29;;;;;;;7.10;3.85;;;21.80;99.90;;;;;;5056739;28;20539;-59
2023/09/06 08:28:56;;;;;;;7.68;3.38;;;21.90;99.90;;;;;;5057459;28;20037;-53
2023/09/06 08:31:21;;;;;;;7.10;4.00;;;22.00;99.90;;;;;;5054721;28;20033;-58
2023/09/06 08:33:47;;;;;;;17.48;4.57;;;22.10;99.90;;;;;;5055889;28;20039;-60
2023/09/06 08:36:13;;;;;;;6.88;3.60;;;22.20;99.90;;;;;;5056242;28;20151;-60
2023/09/06 08:38:42;;;;;;;6.05;3.70;;;22.30;99.90;;;;;;5055519;28;20040;-59
2023/09/06 08:41:09;;;;;;;7.32;3.60;;;22.30;99.90;;;;;;5056309;28;20041;-59
2023/09/06 08:43:36;;;;;;;7.45;3.28;;;22.50;99.90;;;;;;5056304;28;20124;-59
2023/09/06 08:46:11;;;;;;;6.65;3.83;;;22.60;99.90;;;;;;5059159;28;20060;-60
2023/09/06 08:48:38;;;;;;;7.22;3.33;;;22.70;99.90;;;;;;5060143;28;20070;-59
2023/09/06 08:51:05;;;;;;;7.80;3.33;;;22.70;99.90;;;;;;5060437;28;20060;-60
2023/09/06 08:53:34;;;;;;;6.88;3.10;;;22.80;99.90;;;;;;5060062;28;20091;-60
2023/09/06 08:56:03;;;;;;;8.25;3.90;;;22.90;99.90;;;;;;5061020;28;20052;-60
2023/09/06 08:58:30;;;;;;;7.97;3.50;;;23.00;99.90;;;;;;5059638;28;20036;-60
2023/09/06 09:00:57;;;;;;;8.90;3.30;;;23.20;99.90;;;;;;5058895;28;20032;-59
2023/09/06 09:03:22;;;;;;;6.47;3.13;;;23.20;99.90;;;;;;5060203;28;20048;-60
2023/09/06 09:05:48;;;;;;;4.60;3.22;;;23.30;99.90;;;;;;5060033;28;20040;-59
2023/09/06 09:08:14;;;;;;;6.25;3.30;;;23.50;99.90;;;;;;5058486;28;20056;-59
2023/09/06 09:10:39;;;;;;;5.13;3.42;;;23.60;99.90;;;;;;5059512;28;20032;-60
2023/09/06 09:13:12;;;;;;;6.82;3.22;;;23.70;99.90;;;;;;5059288;28;20075;-59
2023/09/06 09:15:37;;;;;;;5.15;3.05;;;23.90;99.90;;;;;;5057248;28;20040;-59
2023/09/06 09:18:12;;;;;;;10.20;3.38;;;24.00;99.90;;;;;;5058995;28;20418;-58
2023/09/06 09:20:40;;;;;;;6.13;3.30;;;24.20;99.90;;;;;;5061070;28;20045;-59
2023/09/06 09:23:16;;;;;;;5.78;3.25;;;24.30;99.90;;;;;;5068737;28;20048;-59
2023/09/06 09:25:50;;;;;;;5.85;3.42;;;24.40;99.90;;;;;;5100884;28;20541;-62
2023/09/06 09:28:16;;;;;;;5.20;3.00;;;24.60;99.90;;;;;;5069068;28;20044;-60
2023/09/06 09:30:42;;;;;;;5.75;3.05;;;24.70;99.90;;;;;;5057194;28;20124;-59
2023/09/06 09:33:08;;;;;;;6.85;2.80;;;24.80;99.90;;;;;;5056456;28;20217;-59
2023/09/06 09:35:35;;;;;;;6.68;3.05;;;25.00;99.90;;;;;;5059487;28;20086;-59
2023/09/06 09:38:02;;;;;;;7.32;3.20;;;25.10;99.90;;;;;;5057921;28;20052;-61
2023/09/06 09:40:36;;;;;;;6.47;2.97;;;25.30;99.90;;;;;;5052873;28;20439;-58
2023/09/06 09:43:04;;;;;;;6.35;3.20;;;25.40;99.90;;;;;;5056466;28;20055;-61
2023/09/06 09:45:44;;;;;;;8.50;2.80;;;25.40;99.90;;;;;;5059339;28;20047;-60
2023/09/06 09:48:11;;;;;;;5.30;2.75;;;25.60;99.90;;;;;;5059584;28;20063;-58
2023/09/06 09:50:41;;;;;;;6.68;3.17;;;25.60;99.90;;;;;;5056443;28;20043;-59
2023/09/06 09:53:08;;;;;;;6.50;2.78;;;25.70;99.90;;;;;;5059510;28;20037;-60
2023/09/06 09:55:40;;;;;;;7.63;2.97;;;25.70;99.90;;;;;;5056739;28;20403;-60
2023/09/06 09:58:09;;;;;;;5.63;2.70;;;25.80;99.90;;;;;;5054369;28;20043;-59
2023/09/06 10:00:39;;;;;;;5.22;3.30;;;25.80;99.90;;;;;;5056015;28;20032;-58
2023/09/06 10:03:07;;;;;;;5.20;2.85;;;25.90;99.90;;;;;;5057442;28;20036;-59
2023/09/06 10:05:33;;;;;;;6.10;2.80;;;26.00;99.90;;;;;;5057928;28;20037;-61
2023/09/06 10:08:01;;;;;;;6.90;2.78;;;26.00;99.90;;;;;;5057058;28;20070;-59
2023/09/06 10:10:27;;;;;;;6.55;3.00;;;26.10;99.90;;;;;;5058001;28;20044;-59
2023/09/06 10:12:54;;;;;;;6.20;3.33;;;26.10;99.90;;;;;;5057387;28;20047;-60
2023/09/06 10:15:23;;;;;;;6.72;3.10;;;26.20;99.90;;;;;;5056008;28;20441;-59
2023/09/06 10:17:56;;;;;;;5.50;3.05;;;26.30;99.90;;;;;;5056935;28;24461;-60
2023/09/06 10:20:23;;;;;;;4.68;2.63;;;26.30;99.90;;;;;;5056365;28;20079;-61
2023/09/06 10:22:54;;;;;;;5.07;2.80;;;26.30;99.90;;;;;;5058778;28;20044;-59
2023/09/06 10:25:19;;;;;;;5.25;2.95;;;26.40;99.90;;;;;;5058882;28;20048;-60
2023/09/06 10:27:50;;;;;;;6.13;3.25;;;26.70;99.90;;;;;;5058497;28;20483;-60
2023/09/06 10:30:20;;;;;;;5.60;2.92;;;26.50;99.90;;;;;;5055906;28;20479;-61
2023/09/06 10:32:47;;;;;;;5.13;2.83;;;26.60;99.90;;;;;;5058279;28;20496;-62
2023/09/06 10:35:24;;;;;;;6.53;2.80;;;26.60;99.90;;;;;;5058046;28;20131;-60
2023/09/06 10:38:07;;;;;;;7.45;2.53;;;26.70;99.90;;;;;;5056760;28;20061;-60
2023/09/06 10:40:51;;;;;;;9.93;3.10;;;26.80;99.90;;;;;;5058703;28;20043;-60
2023/09/06 10:43:40;;;;;;;5.63;2.83;;;26.90;99.90;;;;;;5056252;28;20131;-60
2023/09/06 10:46:09;;;;;;;5.43;2.97;;;27.00;99.90;;;;;;5057055;28;20044;-60
2023/09/06 10:48:35;;;;;;;4.43;2.70;;;27.10;99.90;;;;;;5057745;28;20120;-60
2023/09/06 10:51:07;;;;;;;7.25;3.30;;;27.20;99.90;;;;;;5051521;28;20454;-60
2023/09/06 10:53:34;;;;;;;6.57;2.70;;;27.30;99.90;;;;;;5055528;28;21062;-59
2023/09/06 10:56:02;;;;;;;5.78;2.70;;;27.50;99.90;;;;;;5045632;28;20098;-61
2023/09/06 10:58:29;;;;;;;5.07;2.28;;;27.60;99.90;;;;;;5056944;28;20040;-59
2023/09/06 11:01:16;;;;;;;6.95;2.40;;;27.70;99.90;;;;;;5058383;28;20521;-59
2023/09/06 11:03:50;;;;;;;6.28;2.67;;;27.90;99.90;;;;;;5048128;28;20051;-60
2023/09/06 11:06:16;;;;;;;4.00;2.00;;;28.10;99.90;;;;;;5056834;28;20727;-59
2023/09/06 11:08:41;;;;;;;3.92;2.33;;;28.10;99.90;;;;;;5056406;28;20043;-60
2023/09/06 11:11:10;;;;;;;5.13;2.53;;;28.20;99.90;;;;;;5065125;28;20479;-60
2023/09/06 11:13:41;;;;;;;3.90;2.10;;;28.30;99.90;;;;;;5067256;28;20353;-62
2023/09/06 11:16:15;;;;;;;4.25;2.45;;;28.30;99.90;;;;;;5061855;28;20535;-62
2023/09/06 11:18:47;;;;;;;4.47;2.20;;;28.40;99.90;;;;;;5060812;28;20036;-60
2023/09/06 11:21:20;;;;;;;5.72;2.50;;;28.50;99.90;;;;;;5054358;28;20049;-62
2023/09/06 11:23:51;;;;;;;4.50;1.92;;;28.60;99.90;;;;;;5052674;28;20082;-61
2023/09/06 11:26:19;;;;;;;5.60;2.60;;;28.80;99.90;;;;;;5061063;28;20127;-58
2023/09/06 11:28:47;;;;;;;6.80;2.30;;;28.80;99.90;;;;;;5061788;28;20064;-59
2023/09/06 11:31:29;;;;;;;4.57;1.95;;;28.90;99.90;;;;;;5050565;28;20480;-58
2023/09/06 11:34:01;;;;;;;5.47;2.53;;;29.00;99.90;;;;;;5062116;28;20420;-61
2023/09/06 11:36:30;;;;;;;5.13;2.00;;;29.10;99.90;;;;;;5053726;28;20071;-61
2023/09/06 11:38:57;;;;;;;5.32;1.95;;;29.30;99.90;;;;;;5056170;28;20484;-59
2023/09/06 11:41:24;;;;;;;6.18;2.20;;;29.40;99.90;;;;;;5059319;28;20044;-61
2023/09/06 11:43:56;;;;;;;4.75;2.40;;;29.60;99.90;;;;;;5059142;28;20032;-61
2023/09/06 11:46:22;;;;;;;4.47;2.20;;;29.70;99.90;;;;;;5056443;28;20863;-61
2023/09/06 11:48:48;;;;;;;4.22;2.33;;;29.80;99.90;;;;;;5055694;28;20048;-60
2023/09/06 11:51:14;;;;;;;5.65;2.40;;;29.90;99.90;;;;;;5057899;28;20040;-60
2023/09/06 11:53:43;;;;;;;4.35;1.85;;;30.00;99.90;;;;;;5061056;28;20072;-61
2023/09/06 11:56:11;;;;;;;4.57;2.10;;;30.10;99.90;;;;;;5060652;28;20044;-61
2023/09/06 11:58:45;;;;;;;3.97;1.90;;;30.20;99.90;;;;;;5056193;28;20387;-59
2023/09/06 12:01:12;;;;;;;4.05;1.90;;;30.30;99.90;;;;;;5056714;28;20037;-59
2023/09/06 12:03:45;;;;;;;4.85;2.20;;;30.30;99.90;;;;;;5061603;28;20045;-60
2023/09/06 12:06:11;;;;;;;6.78;2.10;;;30.50;99.90;;;;;;5061143;28;20129;-57
2023/09/06 12:08:38;;;;;;;5.07;2.00;;;30.60;99.90;;;;;;5059755;28;20079;-60
2023/09/06 12:11:10;;;;;;;6.60;2.20;;;30.70;99.70;;;;;;5058998;28;20036;-59
2023/09/06 12:13:38;;;;;;;6.50;1.85;;;30.80;99.60;;;;;;5064714;28;20042;-61
2023/09/06 12:16:09;;;;;;;6.57;1.95;;;30.90;99.50;;;;;;5067038;28;20036;-59
2023/09/06 12:18:35;;;;;;;5.60;2.10;;;31.10;99.50;;;;;;5069231;28;20055;-61
2023/09/06 12:21:03;;;;;;;4.15;1.75;;;31.20;99.90;;;;;;5068101;28;20025;-59
2023/09/06 12:23:29;;;;;;;4.13;2.05;;;31.30;99.10;;;;;;5067699;28;20125;-61
2023/09/06 12:25:55;;;;;;;4.93;1.67;;;31.50;98.90;;;;;;5068702;28;20507;-60
2023/09/06 12:28:22;;;;;;;5.75;2.10;;;31.60;99.10;;;;;;5069343;28;20047;-59
2023/09/06 12:30:53;;;;;;;3.60;1.90;;;31.70;98.80;;;;;;5069012;28;20055;-60
2023/09/06 12:33:21;;;;;;;3.63;1.80;;;31.80;99.00;;;;;;5068099;28;20407;-60
2023/09/06 12:35:47;;;;;;;4.50;1.70;;;31.90;98.70;;;;;;5066655;28;20048;-60
2023/09/06 12:38:13;;;;;;;6.20;2.10;;;32.00;98.60;;;;;;5070463;28;20088;-61
2023/09/06 12:40:39;;;;;;;5.18;1.70;;;32.10;98.50;;;;;;5066559;28;20125;-60
2023/09/06 12:43:08;;;;;;;3.90;1.80;;;32.20;98.20;;;;;;5062154;28;20048;-61
2023/09/06 12:45:33;;;;;;;3.38;1.80;;;32.30;98.50;;;;;;5065015;28;20036;-60
2023/09/06 12:48:00;;;;;;;3.75;1.90;;;32.50;98.10;;;;;;5061979;28;20141;-58
2023/09/06 12:50:27;;;;;;;3.83;1.95;;;32.50;97.60;;;;;;5063157;28;20538;-61
2023/09/06 12:52:54;;;;;;;4.28;1.80;;;32.60;97.30;;;;;;5061696;28;20490;-59